Time;durP1;ratioP1;P1;durP2;ratioP2;P2;SDS_P1;SDS_P2;PMS_P1;PMS_P2;Temp;Humidity;BMP_temperature;BMP_pressure;BME280_temperature;BME280_humidity;BME280_pressure;Samples;Min_cycle;Max_cycle;Signal;HPM_P1;HPM_P2
2022/08/11 00:01:49;;;;;;;11.27;5.63;;;23.00;99.90;;;;;;4997311;28;20503;-61
2022/08/11 00:04:16;;;;;;;11.43;5.93;;;23.00;99.90;;;;;;4958055;28;20577;-62
2022/08/11 00:06:44;;;;;;;10.57;5.97;;;22.90;99.90;;;;;;4988398;28;20244;-62
2022/08/11 00:09:17;;;;;;;11.95;6.25;;;22.90;99.90;;;;;;4985492;28;20269;-62
2022/08/11 00:11:49;;;;;;;10.45;5.82;;;22.90;99.90;;;;;;4991004;28;20189;-61
2022/08/11 00:14:31;;;;;;;11.75;6.35;;;22.90;99.90;;;;;;4991493;28;20177;-62
2022/08/11 00:16:59;;;;;;;12.43;6.15;;;22.80;99.90;;;;;;4988592;28;20628;-62
2022/08/11 00:19:31;;;;;;;12.85;6.40;;;22.80;99.90;;;;;;4990558;28;20184;-61
2022/08/11 00:21:58;;;;;;;14.40;6.53;;;22.80;99.90;;;;;;4989742;28;20247;-61
2022/08/11 00:24:31;;;;;;;11.70;6.28;;;22.80;99.90;;;;;;4993657;28;20189;-62
2022/08/11 00:26:57;;;;;;;9.98;6.50;;;22.80;99.90;;;;;;4999401;28;20200;-62
2022/08/11 00:29:22;;;;;;;13.77;6.43;;;22.80;99.90;;;;;;4975982;28;20188;-62
2022/08/11 00:31:53;;;;;;;9.30;5.55;;;22.70;99.90;;;;;;5007330;28;20240;-63
2022/08/11 00:34:29;;;;;;;11.30;6.13;;;22.70;99.90;;;;;;5009142;28;20196;-61
2022/08/11 00:37:10;;;;;;;9.77;6.28;;;22.70;99.90;;;;;;4975678;28;20216;-63
2022/08/11 00:39:48;;;;;;;14.77;6.15;;;22.70;99.90;;;;;;4992759;28;20625;-63
2022/08/11 00:42:25;;;;;;;9.90;6.25;;;22.70;99.90;;;;;;4982162;28;20223;-63
2022/08/11 00:45:10;;;;;;;8.52;6.00;;;22.60;99.90;;;;;;4990957;28;20623;-61
2022/08/11 00:48:07;;;;;;;9.45;6.03;;;22.60;99.90;;;;;;4974575;28;20188;-62
2022/08/11 00:50:59;;;;;;;14.55;6.53;;;22.60;99.90;;;;;;4983386;28;20661;-62
2022/08/11 00:53:51;;;;;;;9.70;5.75;;;22.60;99.90;;;;;;5008659;28;20191;-61
2022/08/11 00:56:32;;;;;;;10.57;6.55;;;22.60;99.90;;;;;;4994635;28;20185;-61
2022/08/11 00:59:25;;;;;;;15.07;6.45;;;22.60;99.90;;;;;;4993655;28;20196;-61
2022/08/11 01:01:57;;;;;;;9.98;5.63;;;22.50;99.90;;;;;;5002128;28;20204;-62
2022/08/11 01:04:39;;;;;;;12.07;6.28;;;22.60;99.90;;;;;;4975941;28;20177;-62
2022/08/11 01:07:17;;;;;;;13.50;6.70;;;22.50;99.90;;;;;;4975517;28;20228;-61
2022/08/11 01:09:52;;;;;;;10.55;6.15;;;22.50;99.90;;;;;;4993340;28;20219;-62
2022/08/11 01:12:44;;;;;;;9.82;6.07;;;22.50;99.90;;;;;;4988922;28;20193;-62
2022/08/11 01:15:39;;;;;;;9.27;5.90;;;22.50;99.90;;;;;;4986968;28;20806;-63
2022/08/11 01:18:19;;;;;;;9.15;6.13;;;22.40;99.90;;;;;;4992996;28;20185;-62
2022/08/11 01:21:07;;;;;;;11.63;6.43;;;22.40;99.90;;;;;;4993689;28;20204;-60
2022/08/11 01:23:51;;;;;;;9.50;6.60;;;22.40;99.90;;;;;;4994178;28;20188;-61
2022/08/11 01:26:39;;;;;;;11.95;6.43;;;22.30;99.90;;;;;;4998413;28;20188;-62
2022/08/11 01:29:50;;;;;;;14.80;6.22;;;22.30;99.90;;;;;;4996909;28;20606;-62
2022/08/11 01:32:28;;;;;;;14.88;6.68;;;22.30;99.90;;;;;;4995392;28;20209;-61
2022/08/11 01:35:30;;;;;;;11.80;6.32;;;22.30;99.90;;;;;;5011225;28;20189;-60
2022/08/11 01:38:16;;;;;;;13.73;7.10;;;22.20;99.90;;;;;;4987112;28;20177;-62
2022/08/11 01:41:04;;;;;;;13.80;6.57;;;22.20;99.90;;;;;;4999889;28;20763;-61
2022/08/11 01:46:42;;;;;;;10.15;6.13;;;22.20;99.90;;;;;;4978496;28;20213;-62
2022/08/11 01:49:30;;;;;;;9.93;6.55;;;22.10;99.90;;;;;;5007995;28;20227;-62
2022/08/11 01:52:27;;;;;;;11.65;7.35;;;22.10;99.90;;;;;;5001032;28;20196;-62
2022/08/11 01:55:27;;;;;;;9.38;6.32;;;22.10;99.90;;;;;;4995530;28;20538;-62
2022/08/11 01:58:07;;;;;;;8.68;6.72;;;22.10;99.90;;;;;;4995167;28;20272;-62
2022/08/11 02:01:05;;;;;;;9.48;6.47;;;22.10;99.90;;;;;;4992568;28;20212;-62
2022/08/11 02:03:50;;;;;;;14.95;7.00;;;22.00;99.90;;;;;;4977301;28;20207;-62
2022/08/11 02:09:42;;;;;;;9.05;6.85;;;22.00;99.90;;;;;;5016282;28;20200;-62
2022/08/11 02:12:28;;;;;;;9.15;6.78;;;22.00;99.90;;;;;;4978728;28;20661;-61
2022/08/11 02:15:14;;;;;;;13.77;6.70;;;21.90;99.90;;;;;;4994288;28;20181;-61
2022/08/11 02:18:03;;;;;;;14.55;6.82;;;21.90;99.90;;;;;;4996907;28;20223;-61
2022/08/11 02:23:38;;;;;;;12.07;6.97;;;21.80;99.90;;;;;;4995841;28;20193;-62
2022/08/11 02:26:07;;;;;;;12.38;7.32;;;21.80;99.90;;;;;;4985324;28;20192;-61
2022/08/11 02:29:10;;;;;;;10.73;7.45;;;21.80;99.90;;;;;;4997630;28;20204;-63
2022/08/11 02:34:41;;;;;;;13.25;7.32;;;21.70;99.90;;;;;;4976620;28;20181;-62
2022/08/11 02:37:17;;;;;;;10.48;7.38;;;21.70;99.90;;;;;;4991993;28;20189;-61
2022/08/11 02:40:05;;;;;;;12.35;7.57;;;21.60;99.90;;;;;;4982232;28;20665;-63
2022/08/11 02:42:39;;;;;;;12.90;7.22;;;21.50;99.90;;;;;;4984817;28;20619;-62
2022/08/11 02:45:10;;;;;;;10.77;7.00;;;21.50;99.90;;;;;;4991692;28;20212;-61
2022/08/11 02:51:29;;;;;;;11.43;6.85;;;21.40;99.90;;;;;;5001728;28;20198;-61
2022/08/11 02:54:13;;;;;;;14.00;7.55;;;21.40;99.90;;;;;;5001635;28;20185;-64
2022/08/11 02:57:05;;;;;;;11.55;7.18;;;21.40;99.90;;;;;;4997704;28;20181;-62
2022/08/11 02:59:58;;;;;;;16.73;7.57;;;21.40;99.90;;;;;;4995669;28;20192;-63
2022/08/11 03:02:26;;;;;;;12.88;7.50;;;21.30;99.90;;;;;;4995443;28;20740;-65
2022/08/11 03:05:15;;;;;;;13.77;7.38;;;21.30;99.90;;;;;;4975471;28;20193;-61
2022/08/11 03:08:06;;;;;;;12.27;7.40;;;21.30;99.90;;;;;;4959040;28;20197;-62
2022/08/11 03:10:44;;;;;;;11.50;7.47;;;21.30;99.90;;;;;;4980967;28;20189;-62
2022/08/11 03:19:13;;;;;;;12.05;8.10;;;21.30;99.90;;;;;;4995159;28;20182;-62
2022/08/11 03:22:08;;;;;;;8.60;7.47;;;21.20;99.90;;;;;;4992715;28;20250;-62
2022/08/11 03:24:53;;;;;;;14.48;7.70;;;21.20;99.90;;;;;;5006262;28;20255;-61
2022/08/11 03:27:32;;;;;;;10.32;7.53;;;21.20;99.90;;;;;;4993876;28;20193;-62
2022/08/11 03:30:14;;;;;;;11.32;7.28;;;21.20;99.90;;;;;;4993285;28;20201;-63
2022/08/11 03:34:00;;;;;;;10.75;7.68;;;21.10;99.90;;;;;;4990849;28;20196;-62
2022/08/11 03:35:56;;;;;;;9.48;7.18;;;21.10;99.90;;;;;;4993314;28;20276;-62
2022/08/11 03:38:31;;;;;;;11.27;7.57;;;21.10;99.90;;;;;;4993213;28;20188;-61
2022/08/11 03:41:46;;;;;;;11.10;7.78;;;21.10;99.90;;;;;;4997163;28;20190;-60
2022/08/11 03:44:28;;;;;;;15.07;8.63;;;21.00;99.90;;;;;;4974143;28;20185;-60
2022/08/11 03:47:30;;;;;;;11.93;7.32;;;21.00;99.90;;;;;;4991677;28;20668;-60
2022/08/11 03:50:18;;;;;;;16.50;8.05;;;21.00;99.90;;;;;;4973274;28;20228;-61
2022/08/11 03:53:07;;;;;;;16.83;7.47;;;20.90;99.90;;;;;;4989869;28;20192;-61
2022/08/11 03:55:59;;;;;;;10.52;7.70;;;20.90;99.90;;;;;;4962265;28;20696;-60
2022/08/11 03:58:32;;;;;;;12.35;7.90;;;20.80;99.90;;;;;;4991763;28;20231;-60
2022/08/11 04:01:23;;;;;;;17.80;8.27;;;20.80;99.90;;;;;;4990682;28;20189;-61
2022/08/11 04:04:07;;;;;;;11.68;8.10;;;20.70;99.90;;;;;;4994448;28;20181;-60
2022/08/11 04:06:53;;;;;;;13.30;7.80;;;20.60;99.90;;;;;;5000687;28;20217;-60
2022/08/11 04:09:45;;;;;;;13.15;8.00;;;20.60;99.90;;;;;;4993150;28;20201;-61
2022/08/11 04:12:14;;;;;;;9.40;7.70;;;20.60;99.90;;;;;;4992180;28;20198;-61
2022/08/11 04:18:30;;;;;;;12.27;8.10;;;20.60;99.90;;;;;;4982983;28;20192;-60
2022/08/11 04:20:59;;;;;;;13.88;8.48;;;20.60;99.90;;;;;;4989743;28;20628;-60
2022/08/11 04:24:03;;;;;;;16.77;7.53;;;20.60;99.90;;;;;;5000957;28;20201;-61
2022/08/11 04:26:35;;;;;;;12.18;8.10;;;20.60;99.90;;;;;;4987171;28;20184;-61
2022/08/11 04:29:24;;;;;;;12.90;8.13;;;20.60;99.90;;;;;;4974177;28;20184;-59
2022/08/11 04:32:14;;;;;;;12.18;7.65;;;20.50;99.90;;;;;;5003688;28;20196;-60
2022/08/11 04:35:18;;;;;;;13.43;8.23;;;20.50;99.90;;;;;;5006788;28;20202;-59
2022/08/11 04:37:52;;;;;;;12.95;8.50;;;20.50;99.90;;;;;;4987650;28;20280;-58
2022/08/11 04:40:21;;;;;;;12.40;8.10;;;20.50;99.90;;;;;;4990283;28;20555;-56
2022/08/11 04:43:20;;;;;;;11.75;8.15;;;20.50;99.90;;;;;;4997684;28;20685;-60
2022/08/11 04:46:11;;;;;;;12.57;8.00;;;20.40;99.90;;;;;;4957802;28;20201;-60
2022/08/11 05:02:03;;;;;;;13.73;7.75;;;20.50;99.90;;;;;;4990797;28;20301;-64
2022/08/11 05:07:58;;;;;;;10.77;7.90;;;20.50;99.90;;;;;;4974357;28;20190;-61
2022/08/11 05:10:59;;;;;;;16.90;8.38;;;20.60;99.90;;;;;;4980340;28;20180;-60
2022/08/11 05:36:52;;;;;;;12.63;8.25;;;20.70;99.90;;;;;;5004273;28;20214;-59
2022/08/11 05:56:20;;;;;;;13.35;8.27;;;21.00;99.90;;;;;;4995152;28;20189;-59
2022/08/11 05:58:50;;;;;;;15.70;8.20;;;21.10;99.90;;;;;;4989865;28;20278;-60
2022/08/11 06:01:33;;;;;;;17.17;8.25;;;21.10;99.90;;;;;;5000908;28;20173;-60
2022/08/11 06:04:15;;;;;;;16.42;8.50;;;21.20;99.90;;;;;;5008665;28;20220;-62
2022/08/11 06:07:04;;;;;;;12.52;8.90;;;21.20;99.90;;;;;;4961312;28;20204;-61
2022/08/11 06:09:33;;;;;;;14.07;8.20;;;21.30;99.90;;;;;;4995037;28;20190;-58
2022/08/11 06:12:22;;;;;;;17.48;8.40;;;21.30;99.90;;;;;;4996609;28;20189;-59
2022/08/11 06:14:54;;;;;;;16.15;8.65;;;21.30;99.90;;;;;;4993883;28;20197;-59
2022/08/11 06:17:26;;;;;;;15.52;8.77;;;21.40;99.90;;;;;;4993471;28;20177;-62
2022/08/11 06:20:05;;;;;;;14.25;8.45;;;21.40;99.90;;;;;;4992425;28;20181;-62
2022/08/11 06:22:32;;;;;;;11.75;7.75;;;21.40;99.90;;;;;;4989218;28;20220;-61
2022/08/11 06:25:01;;;;;;;10.90;8.27;;;21.50;99.90;;;;;;4970672;28;20190;-61
2022/08/11 06:27:31;;;;;;;15.82;8.80;;;21.50;99.90;;;;;;4988147;28;20189;-61
2022/08/11 06:29:58;;;;;;;10.23;8.38;;;21.50;99.90;;;;;;4987468;28;20215;-61
2022/08/11 06:32:30;;;;;;;15.15;8.60;;;21.60;99.90;;;;;;4982113;28;20196;-61
2022/08/11 06:35:22;;;;;;;13.35;8.70;;;21.60;99.90;;;;;;4994295;28;20217;-61
2022/08/11 06:38:15;;;;;;;14.25;8.60;;;21.70;99.90;;;;;;4988165;28;20177;-59
2022/08/11 06:44:04;;;;;;;11.43;8.07;;;21.70;99.90;;;;;;4998001;28;20204;-60
2022/08/11 06:46:46;;;;;;;14.50;8.80;;;21.80;99.90;;;;;;5011303;28;20633;-63
2022/08/11 06:52:04;;;;;;;19.05;7.80;;;21.90;99.90;;;;;;4997369;28;20189;-60
2022/08/11 06:54:40;;;;;;;11.68;7.20;;;21.90;99.90;;;;;;4994346;28;20273;-60
2022/08/11 07:02:45;;;;;;;17.77;6.90;;;22.10;99.90;;;;;;4991138;28;20561;-67
2022/08/11 07:05:28;;;;;;;14.48;6.70;;;22.20;99.90;;;;;;4979163;28;20235;-63
2022/08/11 07:15:40;;;;;;;12.43;5.97;;;22.30;99.90;;;;;;4992446;28;20181;-61
2022/08/11 07:17:23;;;;;;;14.77;5.78;;;22.40;99.90;;;;;;5019695;28;20625;-60
2022/08/11 07:31:20;;;;;;;10.85;5.32;;;22.80;99.90;;;;;;4997717;28;20193;-62
2022/08/11 07:33:56;;;;;;;10.00;4.97;;;22.90;99.90;;;;;;4995217;28;20174;-61
2022/08/11 07:36:26;;;;;;;7.78;5.20;;;22.90;99.90;;;;;;4987738;28;20192;-66
2022/08/11 07:38:55;;;;;;;14.85;4.70;;;23.00;99.90;;;;;;5008513;28;20185;-65
2022/08/11 07:41:24;;;;;;;10.93;4.40;;;23.00;99.90;;;;;;4983900;28;20192;-60
2022/08/11 07:44:10;;;;;;;7.63;4.90;;;23.10;99.90;;;;;;4993910;28;20193;-58
2022/08/11 07:52:27;;;;;;;13.60;4.63;;;23.30;99.90;;;;;;4989530;28;20460;-61
2022/08/11 07:54:54;;;;;;;14.60;4.50;;;23.40;99.90;;;;;;5006169;28;20653;-61
2022/08/11 08:19:23;;;;;;;10.40;3.60;;;24.10;96.40;;;;;;4998827;28;20277;-62
2022/08/11 08:21:49;;;;;;;14.50;3.78;;;24.20;96.10;;;;;;4991583;28;20205;-63
2022/08/11 08:24:18;;;;;;;13.35;3.78;;;24.30;95.70;;;;;;4993283;28;20192;-64
2022/08/11 08:26:59;;;;;;;10.63;4.15;;;24.40;95.10;;;;;;4995471;28;20208;-65
2022/08/11 08:32:22;;;;;;;7.25;3.10;;;24.60;94.00;;;;;;4993457;28;20213;-62
2022/08/11 08:34:50;;;;;;;7.45;3.03;;;24.70;93.70;;;;;;4993639;28;20181;-61
2022/08/11 08:37:22;;;;;;;9.15;3.00;;;24.70;93.50;;;;;;5000399;28;20235;-63
2022/08/11 08:39:49;;;;;;;11.20;3.10;;;24.80;92.90;;;;;;4993745;28;20192;-62
2022/08/11 08:42:25;;;;;;;13.75;3.10;;;24.90;92.10;;;;;;5010934;28;20226;-63
2022/08/11 08:45:15;;;;;;;8.68;2.95;;;25.00;91.70;;;;;;5001983;28;20209;-61
2022/08/11 08:47:44;;;;;;;6.93;3.00;;;25.20;91.10;;;;;;4994795;28;20189;-63
2022/08/11 08:50:20;;;;;;;12.38;2.95;;;25.20;90.30;;;;;;4993050;28;20308;-64
2022/08/11 08:53:00;;;;;;;13.68;2.97;;;25.30;89.80;;;;;;5021365;28;20188;-62
2022/08/11 08:55:29;;;;;;;9.88;2.63;;;25.40;87.70;;;;;;4975791;28;20271;-63
2022/08/11 08:57:59;;;;;;;10.65;2.42;;;25.50;85.70;;;;;;4992030;28;20220;-63
2022/08/11 09:00:38;;;;;;;8.77;2.53;;;25.60;84.50;;;;;;4978099;28;20235;-62
2022/08/11 09:03:04;;;;;;;9.80;2.88;;;25.70;84.00;;;;;;5028461;28;20204;-64
2022/08/11 09:05:30;;;;;;;11.52;2.63;;;25.80;83.00;;;;;;5005711;28;20204;-63
2022/08/11 09:07:57;;;;;;;4.68;2.47;;;25.80;81.30;;;;;;4987629;28;20640;-61
2022/08/11 09:10:24;;;;;;;5.97;2.60;;;26.00;79.50;;;;;;5008681;28;20188;-61
2022/08/11 09:12:50;;;;;;;6.35;2.85;;;26.00;78.50;;;;;;4975926;28;20219;-61
2022/08/11 09:15:17;;;;;;;4.68;2.40;;;26.10;76.90;;;;;;5000850;28;20174;-61
2022/08/11 09:17:48;;;;;;;6.03;2.33;;;26.20;74.60;;;;;;4980871;28;20225;-61
2022/08/11 09:20:23;;;;;;;6.03;2.35;;;26.30;74.00;;;;;;4989989;28;20525;-59
2022/08/11 09:28:29;;;;;;;9.15;2.40;;;26.60;72.30;;;;;;4994116;28;20180;-60
2022/08/11 09:30:56;;;;;;;8.93;2.10;;;26.70;71.50;;;;;;4998240;28;20180;-61
2022/08/11 09:33:23;;;;;;;10.27;2.50;;;26.80;70.90;;;;;;4965819;28;20267;-60
2022/08/11 09:35:51;;;;;;;4.75;2.45;;;26.80;69.70;;;;;;5000546;28;20196;-61
2022/08/11 09:41:08;;;;;;;7.00;2.20;;;27.10;66.50;;;;;;4976262;28;20189;-62
2022/08/11 09:46:31;;;;;;;4.07;2.20;;;27.30;65.50;;;;;;4996835;28;20552;-61
2022/08/11 09:48:59;;;;;;;4.38;2.00;;;27.40;65.00;;;;;;4973679;28;20630;-62
2022/08/11 09:51:30;;;;;;;6.63;2.00;;;27.50;63.10;;;;;;4978559;28;20193;-62
2022/08/11 09:53:58;;;;;;;10.82;2.28;;;27.60;62.10;;;;;;4976165;28;20224;-60
2022/08/11 09:59:09;;;;;;;8.55;1.77;;;27.80;60.90;;;;;;4987722;28;20190;-61
2022/08/11 10:01:44;;;;;;;10.52;2.20;;;27.90;60.10;;;;;;4974824;28;20299;-61
2022/08/11 10:04:16;;;;;;;7.13;2.08;;;28.00;59.30;;;;;;4975154;28;20199;-62
2022/08/11 10:07:05;;;;;;;7.95;1.75;;;28.10;59.20;;;;;;4974634;28;20720;-62
2022/08/11 10:09:55;;;;;;;5.80;2.28;;;28.20;58.60;;;;;;4957782;29;20187;-62
2022/08/11 10:12:34;;;;;;;6.38;2.10;;;28.30;57.00;;;;;;4975786;28;20189;-62
2022/08/11 10:15:34;;;;;;;9.45;2.15;;;28.40;57.00;;;;;;4974936;28;20178;-62
2022/08/11 10:20:53;;;;;;;7.18;2.15;;;28.60;56.10;;;;;;4974247;28;20595;-62
2022/08/11 10:28:51;;;;;;;8.40;2.20;;;28.80;54.40;;;;;;4982547;28;20189;-62
2022/08/11 10:34:07;;;;;;;6.22;2.05;;;29.00;53.80;;;;;;4972961;28;20178;-60
2022/08/11 10:36:41;;;;;;;4.40;2.10;;;29.10;53.40;;;;;;4986538;28;20217;-64
2022/08/11 10:39:10;;;;;;;5.78;1.80;;;29.20;53.20;;;;;;4974858;28;20645;-62
2022/08/11 10:44:23;;;;;;;8.98;2.10;;;29.30;52.20;;;;;;4975103;28;20204;-61
2022/08/11 10:49:35;;;;;;;4.95;2.17;;;29.50;52.20;;;;;;4984409;28;20735;-62
2022/08/11 11:00:17;;;;;;;6.18;2.25;;;29.90;50.20;;;;;;5014034;28;20195;-61
2022/08/11 11:02:45;;;;;;;5.18;2.10;;;30.00;50.30;;;;;;5029567;28;20232;-65
2022/08/11 11:05:37;;;;;;;4.95;2.42;;;30.00;49.90;;;;;;4996157;28;20227;-63
2022/08/11 11:10:57;;;;;;;9.43;2.13;;;30.20;49.70;;;;;;5007939;28;20234;-63
2022/08/11 11:19:18;;;;;;;4.05;2.00;;;30.50;49.30;;;;;;4925974;29;20203;-64
2022/08/11 11:21:46;;;;;;;6.05;2.20;;;30.60;48.80;;;;;;4904864;29;20207;-61
2022/08/11 11:24:51;;;;;;;3.38;1.92;;;30.70;47.70;;;;;;4947164;28;20208;-65
2022/08/11 11:27:55;;;;;;;5.70;2.58;;;30.80;47.90;;;;;;4971589;28;20182;-63
2022/08/11 11:30:26;;;;;;;6.70;2.30;;;30.90;46.50;;;;;;4983312;28;20184;-63
2022/08/11 11:33:13;;;;;;;6.88;2.30;;;31.00;47.10;;;;;;4976367;28;20191;-63
2022/08/11 11:36:21;;;;;;;4.00;2.40;;;31.00;46.80;;;;;;4985467;28;20216;-62
2022/08/11 11:38:46;;;;;;;7.10;1.83;;;31.10;47.10;;;;;;4966108;28;20246;-64
2022/08/11 11:41:24;;;;;;;9.52;2.20;;;31.20;46.10;;;;;;5008275;28;20656;-63
2022/08/11 11:43:58;;;;;;;3.25;2.15;;;31.30;46.50;;;;;;4992801;28;20644;-65
2022/08/11 11:46:26;;;;;;;8.15;2.15;;;31.40;46.40;;;;;;4991867;28;20318;-63
2022/08/11 11:48:57;;;;;;;6.90;2.00;;;31.50;46.40;;;;;;4993229;28;20224;-63
2022/08/11 11:51:24;;;;;;;6.80;2.30;;;31.60;45.90;;;;;;4992766;28;20188;-62
2022/08/11 11:53:51;;;;;;;9.35;2.10;;;31.80;45.20;;;;;;4994904;28;20184;-63
2022/08/11 11:56:20;;;;;;;7.55;2.08;;;31.80;44.80;;;;;;4989701;28;20883;-62
2022/08/11 12:01:32;;;;;;;21.30;2.72;;;32.10;44.50;;;;;;4978496;28;20219;-63
2022/08/11 12:04:04;;;;;;;10.25;2.50;;;32.20;44.00;;;;;;4993811;28;20185;-60
2022/08/11 12:06:31;;;;;;;3.97;1.92;;;32.30;44.40;;;;;;5001082;28;20196;-66
2022/08/11 12:08:59;;;;;;;5.05;2.20;;;32.30;43.90;;;;;;4993026;28;20185;-63
2022/08/11 12:14:17;;;;;;;6.40;2.20;;;32.30;43.40;;;;;;4977286;28;20184;-63
2022/08/11 12:16:45;;;;;;;6.43;2.58;;;32.30;43.70;;;;;;4973425;28;20191;-65
2022/08/11 12:19:17;;;;;;;9.35;2.63;;;32.40;43.60;;;;;;4986441;28;20184;-66
2022/08/11 12:27:19;;;;;;;5.45;2.17;;;32.50;42.50;;;;;;5003747;28;20212;-61
2022/08/11 12:29:49;;;;;;;10.65;2.08;;;32.60;42.50;;;;;;4963513;28;20200;-69
2022/08/11 12:32:15;;;;;;;6.72;2.33;;;32.60;42.30;;;;;;4993392;28;20211;-61
2022/08/11 12:34:41;;;;;;;8.23;2.20;;;32.60;41.80;;;;;;4992718;28;20663;-64
2022/08/11 12:37:09;;;;;;;8.27;2.13;;;32.70;42.10;;;;;;4992580;28;20184;-67
2022/08/11 12:45:27;;;;;;;7.15;2.08;;;32.80;41.50;;;;;;4991058;28;20192;-63
2022/08/11 12:53:58;;;;;;;7.03;2.28;;;33.00;41.30;;;;;;4989587;28;20212;-68
2022/08/11 13:04:52;;;;;;;9.55;2.42;;;33.20;41.30;;;;;;4967632;28;20193;-63
2022/08/11 13:07:19;;;;;;;3.78;2.28;;;33.30;41.50;;;;;;4988559;28;20653;-63
2022/08/11 13:09:45;;;;;;;4.70;2.67;;;33.30;41.50;;;;;;5005017;28;20172;-63
2022/08/11 13:14:59;;;;;;;3.75;2.25;;;33.30;41.00;;;;;;4988962;28;20218;-64
2022/08/11 13:17:28;;;;;;;4.85;2.53;;;33.30;40.90;;;;;;5006377;28;20234;-62
2022/08/11 13:19:57;;;;;;;5.28;2.65;;;33.40;41.30;;;;;;4991726;28;20187;-63
2022/08/11 13:22:24;;;;;;;6.43;2.42;;;33.30;40.70;;;;;;4988397;28;20235;-62
2022/08/11 13:24:54;;;;;;;7.65;2.22;;;33.30;40.30;;;;;;4984411;28;20674;-63
2022/08/11 13:27:20;;;;;;;7.55;2.40;;;33.40;40.00;;;;;;5002563;28;20180;-63
2022/08/11 13:29:49;;;;;;;8.38;2.47;;;33.40;39.80;;;;;;4998721;28;20664;-63
2022/08/11 13:32:15;;;;;;;6.55;2.20;;;33.40;39.70;;;;;;4996985;28;20192;-61
2022/08/11 13:34:42;;;;;;;5.32;2.15;;;33.50;40.10;;;;;;4999510;28;20195;-60
2022/08/11 13:37:11;;;;;;;6.05;2.40;;;33.60;40.00;;;;;;5011380;28;20247;-65
2022/08/11 13:39:45;;;;;;;9.80;2.65;;;33.60;40.80;;;;;;4999204;28;20693;-65
2022/08/11 13:42:15;;;;;;;9.13;2.50;;;33.70;39.80;;;;;;4998987;28;20211;-65
2022/08/11 13:44:42;;;;;;;7.82;2.50;;;33.80;40.00;;;;;;4999180;28;20188;-68
2022/08/11 13:47:11;;;;;;;8.05;2.50;;;33.90;39.90;;;;;;5014954;28;20195;-62
2022/08/11 13:49:39;;;;;;;9.85;2.40;;;33.90;39.50;;;;;;5009639;28;20230;-64
2022/08/11 13:52:11;;;;;;;7.63;2.33;;;34.00;39.30;;;;;;4985358;28;20356;-63
2022/08/11 13:54:39;;;;;;;5.28;2.30;;;34.00;39.40;;;;;;4995256;28;20215;-65
2022/08/11 13:57:07;;;;;;;9.30;2.35;;;34.10;39.50;;;;;;4997812;28;20297;-67
2022/08/11 13:59:35;;;;;;;6.93;2.20;;;34.20;39.40;;;;;;4985364;28;20250;-68
2022/08/11 14:02:07;;;;;;;6.45;2.60;;;34.20;39.30;;;;;;5009292;28;20222;-65
2022/08/11 14:05:03;;;;;;;4.45;2.20;;;34.20;38.60;;;;;;4983817;28;20188;-66
2022/08/11 14:07:40;;;;;;;7.00;1.90;;;34.30;38.90;;;;;;4996369;28;20196;-64
2022/08/11 14:10:10;;;;;;;6.53;2.30;;;34.30;39.30;;;;;;4994715;28;20242;-66
2022/08/11 14:15:27;;;;;;;3.90;1.90;;;34.40;38.20;;;;;;4993747;28;20196;-62
2022/08/11 14:18:03;;;;;;;6.82;2.05;;;34.40;38.00;;;;;;4993910;28;20683;-66
2022/08/11 14:23:19;;;;;;;15.30;2.42;;;34.50;38.00;;;;;;4989912;28;20216;-63
2022/08/11 14:28:33;;;;;;;3.78;1.83;;;34.50;37.80;;;;;;4996320;28;20259;-64
2022/08/11 14:31:00;;;;;;;5.28;1.80;;;34.50;38.10;;;;;;4993762;28;20262;-64
2022/08/11 14:33:26;;;;;;;3.35;1.90;;;34.50;37.90;;;;;;4994770;28;20204;-63
2022/08/11 14:35:52;;;;;;;6.97;1.80;;;34.50;38.10;;;;;;4994436;28;20220;-64
2022/08/11 14:38:19;;;;;;;8.52;2.20;;;34.40;37.90;;;;;;4993282;28;20614;-64
2022/08/11 14:49:03;;;;;;;5.65;1.98;;;34.40;37.50;;;;;;4993574;28;20221;-64
2022/08/11 14:51:29;;;;;;;3.58;2.17;;;34.50;37.90;;;;;;4994517;28;20231;-65
2022/08/11 14:56:34;;;;;;;8.93;2.00;;;34.50;37.60;;;;;;5009193;28;20192;-64
2022/08/11 14:56:43;;;;;;;6.63;2.00;;;34.50;37.40;;;;;;4959092;28;20281;-64
2022/08/11 14:59:10;;;;;;;6.55;1.90;;;34.60;37.50;;;;;;4991683;28;20200;-64
2022/08/11 15:04:22;;;;;;;7.20;2.20;;;34.60;37.30;;;;;;4997752;28;20196;-64
2022/08/11 15:06:48;;;;;;;7.07;1.70;;;34.60;37.00;;;;;;5014993;28;20315;-63
2022/08/11 15:09:15;;;;;;;6.40;2.03;;;34.60;37.20;;;;;;5012511;28;20203;-63
2022/08/11 15:17:12;;;;;;;8.35;1.65;;;34.60;36.90;;;;;;5003498;28;20185;-64
2022/08/11 15:25:09;;;;;;;3.35;1.50;;;34.60;37.40;;;;;;5015158;28;20283;-63
2022/08/11 15:38:52;;;;;;;3.63;1.70;;;34.70;37.30;;;;;;5002428;28;20695;-65
2022/08/11 15:47:00;;;;;;;8.63;1.80;;;34.80;36.50;;;;;;4989001;28;20602;-63
2022/08/11 15:49:33;;;;;;;5.03;1.70;;;34.80;36.70;;;;;;4994621;28;20235;-64
2022/08/11 15:52:12;;;;;;;3.53;1.90;;;34.80;36.80;;;;;;4983269;28;20263;-63
2022/08/11 15:54:41;;;;;;;4.88;1.65;;;34.80;36.80;;;;;;4996070;28;20180;-63
2022/08/11 15:57:08;;;;;;;4.43;1.80;;;34.80;36.40;;;;;;5010810;28;22631;-65
2022/08/11 16:05:14;;;;;;;4.43;1.52;;;34.60;36.40;;;;;;4999659;28;20283;-63
2022/08/11 16:07:41;;;;;;;6.38;2.00;;;34.60;37.00;;;;;;4991298;28;20189;-64
2022/08/11 16:10:20;;;;;;;3.95;1.80;;;34.60;37.30;;;;;;5000544;28;20184;-63
2022/08/11 16:18:39;;;;;;;5.30;1.98;;;34.70;37.90;;;;;;4994744;28;20181;-65
2022/08/11 16:21:11;;;;;;;4.82;2.05;;;34.70;38.00;;;;;;5006044;28;20202;-62
2022/08/11 16:23:42;;;;;;;7.72;1.70;;;34.70;38.30;;;;;;4996106;28;20289;-65
2022/08/11 16:26:08;;;;;;;4.60;1.70;;;34.70;38.20;;;;;;4991821;28;20184;-64
2022/08/11 16:28:35;;;;;;;5.90;1.80;;;34.50;38.10;;;;;;4991478;28;20180;-67
2022/08/11 16:31:01;;;;;;;5.38;1.50;;;34.50;38.30;;;;;;4974504;28;20185;-62
2022/08/11 16:33:29;;;;;;;7.75;2.10;;;34.50;38.60;;;;;;4976879;28;20176;-63
2022/08/11 16:38:40;;;;;;;8.48;2.45;;;34.40;38.70;;;;;;4982278;28;20193;-62
2022/08/11 16:41:10;;;;;;;3.35;1.60;;;34.50;38.70;;;;;;4993588;28;20181;-60
2022/08/11 16:49:25;;;;;;;6.55;1.80;;;34.30;38.40;;;;;;4992554;28;20239;-62
2022/08/11 16:51:51;;;;;;;8.27;1.60;;;34.20;38.30;;;;;;4997583;28;20195;-63
2022/08/11 16:54:18;;;;;;;5.55;1.80;;;34.20;38.60;;;;;;4975780;28;20809;-63
2022/08/11 16:56:49;;;;;;;5.63;1.65;;;34.30;39.10;;;;;;4995936;28;20189;-63
2022/08/11 16:59:19;;;;;;;4.43;2.20;;;34.30;39.60;;;;;;4991003;28;20679;-63
2022/08/11 17:01:51;;;;;;;7.07;1.83;;;34.30;39.10;;;;;;5002636;28;20188;-66
2022/08/11 17:13:32;;;;;;;8.07;1.98;;;34.30;39.00;;;;;;4995930;28;20287;-62
2022/08/11 17:16:07;;;;;;;4.07;2.10;;;34.40;39.10;;;;;;5018745;28;20183;-63
2022/08/11 17:18:59;;;;;;;3.47;2.00;;;34.50;38.90;;;;;;5007978;28;20183;-64
2022/08/11 17:23:45;;;;;;;3.95;2.00;;;34.80;38.80;;;;;;4993928;28;20192;-65
2022/08/11 17:24:26;;;;;;;6.13;1.73;;;35.30;38.20;;;;;;4990152;28;20201;-64
2022/08/11 17:26:56;;;;;;;4.00;1.67;;;35.90;37.50;;;;;;4992242;28;20184;-63
2022/08/11 17:29:35;;;;;;;7.15;1.98;;;36.60;36.90;;;;;;4991098;28;20548;-63
2022/08/11 17:37:36;;;;;;;7.15;1.80;;;38.70;34.90;;;;;;4992561;28;20207;-62
2022/08/11 17:40:07;;;;;;;3.40;1.70;;;39.30;34.50;;;;;;4997751;28;20184;-63
2022/08/11 17:50:51;;;;;;;7.72;1.60;;;40.20;34.70;;;;;;4994997;28;20201;-62
2022/08/11 18:01:38;;;;;;;6.15;1.80;;;38.00;37.50;;;;;;4987438;28;20185;-59
2022/08/11 18:04:06;;;;;;;4.88;1.75;;;37.20;38.80;;;;;;4991756;28;20197;-63
2022/08/11 18:06:33;;;;;;;6.38;1.90;;;36.50;39.90;;;;;;5011415;28;20612;-59
